sensor_id;sensor_type;location;lat;lon;timestamp;P1;durP1;ratioP1;P2;durP2;ratioP2
56567;SDS011;42456;49.956;20.004;2024-02-26T00:02:21;27.20;;;11.40;;
56567;SDS011;42456;49.956;20.004;2024-02-26T00:04:48;23.00;;;11.40;;
56567;SDS011;42456;49.956;20.004;2024-02-26T00:07:16;24.60;;;11.40;;
56567;SDS011;42456;49.956;20.004;2024-02-26T00:09:43;22.80;;;10.50;;
56567;SDS011;42456;49.956;20.004;2024-02-26T00:12:10;23.00;;;11.60;;
56567;SDS011;42456;49.956;20.004;2024-02-26T00:14:37;26.40;;;12.30;;
56567;SDS011;42456;49.956;20.004;2024-02-26T00:17:03;26.30;;;12.70;;
56567;SDS011;42456;49.956;20.004;2024-02-26T00:19:30;26.80;;;11.50;;
56567;SDS011;42456;49.956;20.004;2024-02-26T00:21:57;25.10;;;11.30;;
56567;SDS011;42456;49.956;20.004;2024-02-26T00:24:24;24.20;;;11.20;;
56567;SDS011;42456;49.956;20.004;2024-02-26T00:26:51;20.90;;;11.10;;
56567;SDS011;42456;49.956;20.004;2024-02-26T00:29:21;21.20;;;10.30;;
56567;SDS011;42456;49.956;20.004;2024-02-26T00:31:48;21.50;;;9.50;;
56567;SDS011;42456;49.956;20.004;2024-02-26T00:34:15;23.20;;;10.20;;
56567;SDS011;42456;49.956;20.004;2024-02-26T00:36:43;20.30;;;9.50;;
56567;SDS011;42456;49.956;20.004;2024-02-26T00:39:11;22.30;;;9.80;;
56567;SDS011;42456;49.956;20.004;2024-02-26T00:41:38;22.70;;;10.00;;
56567;SDS011;42456;49.956;20.004;2024-02-26T00:44:06;18.70;;;9.00;;
56567;SDS011;42456;49.956;20.004;2024-02-26T00:46:34;21.50;;;9.70;;
56567;SDS011;42456;49.956;20.004;2024-02-26T00:49:00;17.80;;;8.80;;
56567;SDS011;42456;49.956;20.004;2024-02-26T00:51:28;20.20;;;9.50;;
56567;SDS011;42456;49.956;20.004;2024-02-26T00:53:55;21.60;;;10.10;;
56567;SDS011;42456;49.956;20.004;2024-02-26T00:56:22;20.50;;;9.60;;
56567;SDS011;42456;49.956;20.004;2024-02-26T00:58:49;20.10;;;9.40;;
56567;SDS011;42456;49.956;20.004;2024-02-26T01:01:16;19.70;;;8.90;;
56567;SDS011;42456;49.956;20.004;2024-02-26T01:03:44;20.20;;;9.20;;
56567;SDS011;42456;49.956;20.004;2024-02-26T01:06:11;16.30;;;8.60;;
56567;SDS011;42456;49.956;20.004;2024-02-26T01:08:38;20.70;;;8.50;;
56567;SDS011;42456;49.956;20.004;2024-02-26T01:11:05;19.40;;;8.00;;
56567;SDS011;42456;49.956;20.004;2024-02-26T01:13:33;16.00;;;7.50;;
56567;SDS011;42456;49.956;20.004;2024-02-26T01:15:59;17.10;;;8.00;;
56567;SDS011;42456;49.956;20.004;2024-02-26T01:18:27;14.60;;;7.10;;
56567;SDS011;42456;49.956;20.004;2024-02-26T01:20:55;16.00;;;6.70;;
56567;SDS011;42456;49.956;20.004;2024-02-26T01:23:21;14.40;;;6.50;;
56567;SDS011;42456;49.956;20.004;2024-02-26T01:25:49;14.40;;;6.60;;
56567;SDS011;42456;49.956;20.004;2024-02-26T01:28:16;14.80;;;6.80;;
56567;SDS011;42456;49.956;20.004;2024-02-26T01:30:43;15.00;;;6.40;;
56567;SDS011;42456;49.956;20.004;2024-02-26T01:33:09;13.50;;;6.00;;
56567;SDS011;42456;49.956;20.004;2024-02-26T01:35:37;14.10;;;6.60;;
56567;SDS011;42456;49.956;20.004;2024-02-26T01:38:04;12.70;;;6.10;;
56567;SDS011;42456;49.956;20.004;2024-02-26T01:40:31;14.30;;;6.30;;
56567;SDS011;42456;49.956;20.004;2024-02-26T01:42:59;13.50;;;5.60;;
56567;SDS011;42456;49.956;20.004;2024-02-26T01:45:27;12.40;;;5.70;;
56567;SDS011;42456;49.956;20.004;2024-02-26T01:47:55;16.20;;;6.70;;
56567;SDS011;42456;49.956;20.004;2024-02-26T01:50:23;16.00;;;7.20;;
56567;SDS011;42456;49.956;20.004;2024-02-26T01:52:51;15.10;;;6.60;;
56567;SDS011;42456;49.956;20.004;2024-02-26T01:55:20;16.30;;;6.50;;
56567;SDS011;42456;49.956;20.004;2024-02-26T02:00:19;11.10;;;5.30;;
56567;SDS011;42456;49.956;20.004;2024-02-26T02:02:48;14.70;;;6.80;;
56567;SDS011;42456;49.956;20.004;2024-02-26T02:05:16;13.20;;;6.40;;
56567;SDS011;42456;49.956;20.004;2024-02-26T02:07:44;13.10;;;6.50;;
56567;SDS011;42456;49.956;20.004;2024-02-26T02:10:13;14.10;;;6.60;;
56567;SDS011;42456;49.956;20.004;2024-02-26T02:12:40;15.50;;;6.60;;
56567;SDS011;42456;49.956;20.004;2024-02-26T02:15:07;12.70;;;6.60;;
56567;SDS011;42456;49.956;20.004;2024-02-26T02:17:34;14.40;;;6.50;;
56567;SDS011;42456;49.956;20.004;2024-02-26T02:20:02;13.70;;;7.10;;
56567;SDS011;42456;49.956;20.004;2024-02-26T02:22:30;13.50;;;6.30;;
56567;SDS011;42456;49.956;20.004;2024-02-26T02:24:58;12.40;;;5.80;;
56567;SDS011;42456;49.956;20.004;2024-02-26T02:27:27;12.50;;;5.70;;
56567;SDS011;42456;49.956;20.004;2024-02-26T02:29:55;15.10;;;6.30;;
56567;SDS011;42456;49.956;20.004;2024-02-26T02:32:22;13.30;;;5.80;;
56567;SDS011;42456;49.956;20.004;2024-02-26T02:34:51;12.50;;;6.20;;
56567;SDS011;42456;49.956;20.004;2024-02-26T02:37:18;9.50;;;4.70;;
56567;SDS011;42456;49.956;20.004;2024-02-26T02:39:45;13.20;;;5.90;;
56567;SDS011;42456;49.956;20.004;2024-02-26T02:42:12;12.10;;;5.30;;
56567;SDS011;42456;49.956;20.004;2024-02-26T02:44:39;14.00;;;6.00;;
56567;SDS011;42456;49.956;20.004;2024-02-26T02:47:06;13.80;;;6.20;;
56567;SDS011;42456;49.956;20.004;2024-02-26T02:49:33;16.90;;;8.30;;
56567;SDS011;42456;49.956;20.004;2024-02-26T02:52:00;15.80;;;8.10;;
56567;SDS011;42456;49.956;20.004;2024-02-26T02:54:27;15.60;;;6.90;;
56567;SDS011;42456;49.956;20.004;2024-02-26T02:56:54;13.10;;;5.70;;
56567;SDS011;42456;49.956;20.004;2024-02-26T02:59:21;14.20;;;6.20;;
56567;SDS011;42456;49.956;20.004;2024-02-26T03:01:48;13.30;;;6.20;;
56567;SDS011;42456;49.956;20.004;2024-02-26T03:04:15;13.60;;;6.10;;
56567;SDS011;42456;49.956;20.004;2024-02-26T03:06:42;14.40;;;5.90;;
56567;SDS011;42456;49.956;20.004;2024-02-26T03:09:08;12.50;;;5.90;;
56567;SDS011;42456;49.956;20.004;2024-02-26T03:11:35;10.30;;;5.00;;
56567;SDS011;42456;49.956;20.004;2024-02-26T03:14:02;10.90;;;5.20;;
56567;SDS011;42456;49.956;20.004;2024-02-26T03:16:29;10.60;;;4.90;;
56567;SDS011;42456;49.956;20.004;2024-02-26T03:18:56;13.60;;;5.30;;
56567;SDS011;42456;49.956;20.004;2024-02-26T03:21:24;11.60;;;5.10;;
56567;SDS011;42456;49.956;20.004;2024-02-26T03:23:52;10.80;;;4.60;;
56567;SDS011;42456;49.956;20.004;2024-02-26T03:26:19;12.30;;;5.60;;
56567;SDS011;42456;49.956;20.004;2024-02-26T03:28:46;12.60;;;5.80;;
56567;SDS011;42456;49.956;20.004;2024-02-26T03:31:14;22.20;;;12.90;;
56567;SDS011;42456;49.956;20.004;2024-02-26T03:33:42;16.90;;;8.20;;
56567;SDS011;42456;49.956;20.004;2024-02-26T03:36:09;12.50;;;6.00;;
56567;SDS011;42456;49.956;20.004;2024-02-26T03:38:36;10.40;;;5.00;;
56567;SDS011;42456;49.956;20.004;2024-02-26T03:41:04;10.70;;;5.10;;
56567;SDS011;42456;49.956;20.004;2024-02-26T03:43:31;12.80;;;5.50;;
56567;SDS011;42456;49.956;20.004;2024-02-26T03:45:58;10.10;;;5.00;;
56567;SDS011;42456;49.956;20.004;2024-02-26T03:48:25;11.00;;;5.00;;
56567;SDS011;42456;49.956;20.004;2024-02-26T03:50:52;10.10;;;4.20;;
56567;SDS011;42456;49.956;20.004;2024-02-26T03:53:19;9.20;;;4.20;;
56567;SDS011;42456;49.956;20.004;2024-02-26T03:55:46;10.00;;;4.30;;
56567;SDS011;42456;49.956;20.004;2024-02-26T03:58:13;11.50;;;4.40;;
56567;SDS011;42456;49.956;20.004;2024-02-26T04:00:40;8.50;;;4.70;;
56567;SDS011;42456;49.956;20.004;2024-02-26T04:03:07;10.50;;;4.20;;
56567;SDS011;42456;49.956;20.004;2024-02-26T04:05:34;8.10;;;4.10;;
56567;SDS011;42456;49.956;20.004;2024-02-26T04:08:01;10.20;;;4.50;;
56567;SDS011;42456;49.956;20.004;2024-02-26T04:10:30;11.40;;;4.50;;
56567;SDS011;42456;49.956;20.004;2024-02-26T04:13:07;10.70;;;4.90;;
56567;SDS011;42456;49.956;20.004;2024-02-26T04:16:20;10.20;;;4.40;;
56567;SDS011;42456;49.956;20.004;2024-02-26T04:19:22;8.40;;;4.40;;
56567;SDS011;42456;49.956;20.004;2024-02-26T04:22:07;7.80;;;4.50;;
56567;SDS011;42456;49.956;20.004;2024-02-26T04:25:07;9.00;;;4.00;;
56567;SDS011;42456;49.956;20.004;2024-02-26T04:27:38;9.80;;;4.50;;
56567;SDS011;42456;49.956;20.004;2024-02-26T04:30:09;9.30;;;4.50;;
56567;SDS011;42456;49.956;20.004;2024-02-26T04:32:40;10.50;;;4.70;;
56567;SDS011;42456;49.956;20.004;2024-02-26T04:35:13;10.90;;;4.40;;
56567;SDS011;42456;49.956;20.004;2024-02-26T04:37:41;11.50;;;5.00;;
56567;SDS011;42456;49.956;20.004;2024-02-26T04:40:08;10.20;;;4.70;;
56567;SDS011;42456;49.956;20.004;2024-02-26T04:42:36;9.20;;;4.50;;
56567;SDS011;42456;49.956;20.004;2024-02-26T04:45:04;8.50;;;4.40;;
56567;SDS011;42456;49.956;20.004;2024-02-26T04:47:31;8.20;;;4.30;;
56567;SDS011;42456;49.956;20.004;2024-02-26T04:49:58;9.30;;;4.60;;
56567;SDS011;42456;49.956;20.004;2024-02-26T04:52:25;9.10;;;4.40;;
56567;SDS011;42456;49.956;20.004;2024-02-26T04:54:52;8.60;;;4.20;;
56567;SDS011;42456;49.956;20.004;2024-02-26T04:57:19;9.20;;;4.90;;
56567;SDS011;42456;49.956;20.004;2024-02-26T04:59:46;12.20;;;4.60;;
56567;SDS011;42456;49.956;20.004;2024-02-26T05:02:13;9.20;;;4.50;;
56567;SDS011;42456;49.956;20.004;2024-02-26T05:04:40;9.40;;;4.60;;
56567;SDS011;42456;49.956;20.004;2024-02-26T05:07:07;10.10;;;4.50;;
56567;SDS011;42456;49.956;20.004;2024-02-26T05:09:34;9.90;;;4.40;;
56567;SDS011;42456;49.956;20.004;2024-02-26T05:12:02;10.10;;;5.20;;
56567;SDS011;42456;49.956;20.004;2024-02-26T05:14:30;10.70;;;5.30;;
56567;SDS011;42456;49.956;20.004;2024-02-26T05:16:57;12.40;;;5.20;;
56567;SDS011;42456;49.956;20.004;2024-02-26T05:19:24;15.30;;;6.30;;
56567;SDS011;42456;49.956;20.004;2024-02-26T05:21:52;13.80;;;5.70;;
56567;SDS011;42456;49.956;20.004;2024-02-26T05:24:19;11.80;;;6.50;;
56567;SDS011;42456;49.956;20.004;2024-02-26T05:26:49;11.30;;;5.20;;
56567;SDS011;42456;49.956;20.004;2024-02-26T05:29:17;12.30;;;5.20;;
56567;SDS011;42456;49.956;20.004;2024-02-26T05:31:44;12.40;;;5.00;;
56567;SDS011;42456;49.956;20.004;2024-02-26T05:34:12;12.30;;;5.20;;
56567;SDS011;42456;49.956;20.004;2024-02-26T05:36:39;13.00;;;5.30;;
56567;SDS011;42456;49.956;20.004;2024-02-26T05:39:07;11.10;;;5.10;;
56567;SDS011;42456;49.956;20.004;2024-02-26T05:41:39;10.50;;;4.90;;
56567;SDS011;42456;49.956;20.004;2024-02-26T05:44:09;11.00;;;5.10;;
56567;SDS011;42456;49.956;20.004;2024-02-26T05:46:38;10.40;;;5.70;;
56567;SDS011;42456;49.956;20.004;2024-02-26T05:49:05;13.20;;;5.50;;
56567;SDS011;42456;49.956;20.004;2024-02-26T05:51:34;11.60;;;5.10;;
56567;SDS011;42456;49.956;20.004;2024-02-26T05:54:01;13.80;;;5.80;;
56567;SDS011;42456;49.956;20.004;2024-02-26T05:56:29;13.70;;;5.80;;
56567;SDS011;42456;49.956;20.004;2024-02-26T05:58:56;18.00;;;6.40;;
56567;SDS011;42456;49.956;20.004;2024-02-26T06:05:13;10.40;;;4.50;;
56567;SDS011;42456;49.956;20.004;2024-02-26T06:07:42;12.80;;;5.50;;
56567;SDS011;42456;49.956;20.004;2024-02-26T06:10:32;16.10;;;5.60;;
56567;SDS011;42456;49.956;20.004;2024-02-26T06:13:00;13.70;;;7.00;;
56567;SDS011;42456;49.956;20.004;2024-02-26T06:15:29;14.40;;;6.30;;
56567;SDS011;42456;49.956;20.004;2024-02-26T06:18:03;13.60;;;6.40;;
56567;SDS011;42456;49.956;20.004;2024-02-26T06:20:30;12.80;;;6.20;;
56567;SDS011;42456;49.956;20.004;2024-02-26T06:23:00;14.90;;;5.80;;
56567;SDS011;42456;49.956;20.004;2024-02-26T06:25:28;12.30;;;6.30;;
56567;SDS011;42456;49.956;20.004;2024-02-26T06:27:55;15.10;;;7.00;;
56567;SDS011;42456;49.956;20.004;2024-02-26T06:30:23;15.30;;;7.50;;
56567;SDS011;42456;49.956;20.004;2024-02-26T06:32:50;14.90;;;7.00;;
56567;SDS011;42456;49.956;20.004;2024-02-26T06:35:18;18.80;;;8.20;;
56567;SDS011;42456;49.956;20.004;2024-02-26T06:37:45;16.20;;;7.70;;
56567;SDS011;42456;49.956;20.004;2024-02-26T06:40:13;17.50;;;8.40;;
56567;SDS011;42456;49.956;20.004;2024-02-26T06:42:49;18.30;;;8.30;;
56567;SDS011;42456;49.956;20.004;2024-02-26T06:45:19;17.30;;;8.70;;
56567;SDS011;42456;49.956;20.004;2024-02-26T06:48:07;15.70;;;7.70;;
56567;SDS011;42456;49.956;20.004;2024-02-26T06:50:36;21.60;;;8.80;;
56567;SDS011;42456;49.956;20.004;2024-02-26T06:53:04;17.50;;;9.00;;
56567;SDS011;42456;49.956;20.004;2024-02-26T06:55:34;14.70;;;7.70;;
56567;SDS011;42456;49.956;20.004;2024-02-26T06:58:01;16.30;;;7.60;;
56567;SDS011;42456;49.956;20.004;2024-02-26T07:00:29;17.40;;;9.10;;
56567;SDS011;42456;49.956;20.004;2024-02-26T07:02:56;16.10;;;8.10;;
56567;SDS011;42456;49.956;20.004;2024-02-26T07:05:25;17.90;;;9.40;;
56567;SDS011;42456;49.956;20.004;2024-02-26T07:07:53;17.00;;;8.50;;
56567;SDS011;42456;49.956;20.004;2024-02-26T07:10:21;19.80;;;8.90;;
56567;SDS011;42456;49.956;20.004;2024-02-26T07:12:49;22.30;;;9.00;;
56567;SDS011;42456;49.956;20.004;2024-02-26T07:15:17;18.30;;;8.30;;
56567;SDS011;42456;49.956;20.004;2024-02-26T07:17:45;18.40;;;9.40;;
56567;SDS011;42456;49.956;20.004;2024-02-26T07:20:16;19.80;;;8.70;;
56567;SDS011;42456;49.956;20.004;2024-02-26T07:22:45;18.30;;;8.70;;
56567;SDS011;42456;49.956;20.004;2024-02-26T07:25:13;15.20;;;8.10;;
56567;SDS011;42456;49.956;20.004;2024-02-26T07:27:40;18.40;;;8.10;;
56567;SDS011;42456;49.956;20.004;2024-02-26T07:30:09;17.40;;;9.20;;
56567;SDS011;42456;49.956;20.004;2024-02-26T07:32:43;24.00;;;12.90;;
56567;SDS011;42456;49.956;20.004;2024-02-26T07:39:03;21.80;;;12.20;;
56567;SDS011;42456;49.956;20.004;2024-02-26T07:41:34;20.60;;;11.30;;
56567;SDS011;42456;49.956;20.004;2024-02-26T07:44:11;18.00;;;9.20;;
56567;SDS011;42456;49.956;20.004;2024-02-26T07:46:49;17.30;;;9.10;;
56567;SDS011;42456;49.956;20.004;2024-02-26T07:49:20;16.60;;;7.50;;
56567;SDS011;42456;49.956;20.004;2024-02-26T07:51:48;11.80;;;5.80;;
56567;SDS011;42456;49.956;20.004;2024-02-26T07:54:31;13.10;;;6.50;;
56567;SDS011;42456;49.956;20.004;2024-02-26T07:57:20;16.00;;;8.00;;
56567;SDS011;42456;49.956;20.004;2024-02-26T07:59:50;11.60;;;5.50;;
56567;SDS011;42456;49.956;20.004;2024-02-26T08:02:18;9.50;;;4.40;;
56567;SDS011;42456;49.956;20.004;2024-02-26T08:04:48;8.90;;;4.60;;
56567;SDS011;42456;49.956;20.004;2024-02-26T08:08:14;11.20;;;5.20;;
56567;SDS011;42456;49.956;20.004;2024-02-26T08:10:42;11.30;;;5.70;;
56567;SDS011;42456;49.956;20.004;2024-02-26T08:13:09;12.60;;;5.90;;
56567;SDS011;42456;49.956;20.004;2024-02-26T08:15:40;10.30;;;4.70;;
56567;SDS011;42456;49.956;20.004;2024-02-26T08:18:09;9.50;;;4.70;;
56567;SDS011;42456;49.956;20.004;2024-02-26T08:20:39;10.30;;;4.80;;
56567;SDS011;42456;49.956;20.004;2024-02-26T08:23:18;7.50;;;3.90;;
56567;SDS011;42456;49.956;20.004;2024-02-26T08:25:59;6.10;;;3.50;;
56567;SDS011;42456;49.956;20.004;2024-02-26T08:28:36;4.30;;;2.50;;
56567;SDS011;42456;49.956;20.004;2024-02-26T08:31:58;3.00;;;2.10;;
56567;SDS011;42456;49.956;20.004;2024-02-26T08:34:53;2.50;;;2.00;;
56567;SDS011;42456;49.956;20.004;2024-02-26T08:37:23;2.70;;;2.10;;
56567;SDS011;42456;49.956;20.004;2024-02-26T08:39:53;2.70;;;1.80;;
56567;SDS011;42456;49.956;20.004;2024-02-26T08:42:20;3.70;;;1.90;;
56567;SDS011;42456;49.956;20.004;2024-02-26T08:44:55;2.90;;;1.80;;
56567;SDS011;42456;49.956;20.004;2024-02-26T08:48:09;2.40;;;1.90;;
56567;SDS011;42456;49.956;20.004;2024-02-26T08:50:50;2.20;;;1.70;;
56567;SDS011;42456;49.956;20.004;2024-02-26T08:53:28;3.00;;;1.90;;
56567;SDS011;42456;49.956;20.004;2024-02-26T08:56:12;3.10;;;1.90;;
56567;SDS011;42456;49.956;20.004;2024-02-26T09:10:38;3.50;;;2.10;;
56567;SDS011;42456;49.956;20.004;2024-02-26T09:13:39;3.50;;;2.00;;
56567;SDS011;42456;49.956;20.004;2024-02-26T09:16:46;3.40;;;2.30;;
56567;SDS011;42456;49.956;20.004;2024-02-26T09:19:16;3.40;;;2.10;;
56567;SDS011;42456;49.956;20.004;2024-02-26T09:21:53;3.30;;;2.20;;
56567;SDS011;42456;49.956;20.004;2024-02-26T09:25:00;2.70;;;2.10;;
56567;SDS011;42456;49.956;20.004;2024-02-26T09:27:40;2.50;;;1.90;;
56567;SDS011;42456;49.956;20.004;2024-02-26T09:30:15;2.10;;;1.70;;
56567;SDS011;42456;49.956;20.004;2024-02-26T09:32:49;2.00;;;1.80;;
56567;SDS011;42456;49.956;20.004;2024-02-26T09:35:36;3.00;;;1.90;;
56567;SDS011;42456;49.956;20.004;2024-02-26T09:38:03;2.40;;;1.90;;
56567;SDS011;42456;49.956;20.004;2024-02-26T09:40:42;6.20;;;2.40;;
56567;SDS011;42456;49.956;20.004;2024-02-26T09:43:14;8.60;;;2.80;;
56567;SDS011;42456;49.956;20.004;2024-02-26T09:45:51;4.80;;;2.70;;
56567;SDS011;42456;49.956;20.004;2024-02-26T09:48:26;3.00;;;2.10;;
56567;SDS011;42456;49.956;20.004;2024-02-26T09:50:54;4.10;;;2.40;;
56567;SDS011;42456;49.956;20.004;2024-02-26T09:53:38;5.50;;;2.40;;
56567;SDS011;42456;49.956;20.004;2024-02-26T09:56:18;3.30;;;2.50;;
56567;SDS011;42456;49.956;20.004;2024-02-26T09:58:56;4.70;;;2.40;;
56567;SDS011;42456;49.956;20.004;2024-02-26T10:01:28;3.80;;;2.30;;
56567;SDS011;42456;49.956;20.004;2024-02-26T10:04:03;4.30;;;2.60;;
56567;SDS011;42456;49.956;20.004;2024-02-26T10:06:31;4.20;;;2.30;;
56567;SDS011;42456;49.956;20.004;2024-02-26T10:09:06;3.40;;;2.20;;
56567;SDS011;42456;49.956;20.004;2024-02-26T10:11:36;4.20;;;2.60;;
56567;SDS011;42456;49.956;20.004;2024-02-26T10:14:10;5.70;;;2.30;;
56567;SDS011;42456;49.956;20.004;2024-02-26T10:16:38;4.00;;;2.30;;
56567;SDS011;42456;49.956;20.004;2024-02-26T10:19:06;4.20;;;2.30;;
56567;SDS011;42456;49.956;20.004;2024-02-26T10:21:34;4.10;;;2.30;;
56567;SDS011;42456;49.956;20.004;2024-02-26T10:24:04;2.80;;;2.10;;
56567;SDS011;42456;49.956;20.004;2024-02-26T10:26:45;3.80;;;2.00;;
56567;SDS011;42456;49.956;20.004;2024-02-26T10:29:16;3.90;;;2.00;;
56567;SDS011;42456;49.956;20.004;2024-02-26T10:31:44;3.50;;;2.10;;
56567;SDS011;42456;49.956;20.004;2024-02-26T10:34:14;3.40;;;1.90;;
56567;SDS011;42456;49.956;20.004;2024-02-26T10:36:43;2.40;;;2.10;;
56567;SDS011;42456;49.956;20.004;2024-02-26T10:39:19;4.20;;;2.20;;
56567;SDS011;42456;49.956;20.004;2024-02-26T10:41:48;3.20;;;2.10;;
56567;SDS011;42456;49.956;20.004;2024-02-26T10:44:19;4.20;;;2.20;;
56567;SDS011;42456;49.956;20.004;2024-02-26T10:46:50;3.00;;;2.20;;
56567;SDS011;42456;49.956;20.004;2024-02-26T10:49:38;4.00;;;2.60;;
56567;SDS011;42456;49.956;20.004;2024-02-26T10:52:15;3.30;;;2.00;;
56567;SDS011;42456;49.956;20.004;2024-02-26T10:54:47;3.00;;;2.30;;
56567;SDS011;42456;49.956;20.004;2024-02-26T10:57:23;3.70;;;2.10;;
56567;SDS011;42456;49.956;20.004;2024-02-26T11:00:25;6.90;;;3.30;;
56567;SDS011;42456;49.956;20.004;2024-02-26T11:03:11;3.60;;;2.70;;
56567;SDS011;42456;49.956;20.004;2024-02-26T11:06:04;4.10;;;2.70;;
56567;SDS011;42456;49.956;20.004;2024-02-26T11:08:36;2.80;;;2.30;;
56567;SDS011;42456;49.956;20.004;2024-02-26T11:11:08;2.90;;;2.30;;
56567;SDS011;42456;49.956;20.004;2024-02-26T11:13:47;4.80;;;2.70;;
56567;SDS011;42456;49.956;20.004;2024-02-26T11:16:36;4.90;;;2.60;;
56567;SDS011;42456;49.956;20.004;2024-02-26T11:19:32;3.70;;;2.50;;
56567;SDS011;42456;49.956;20.004;2024-02-26T11:22:13;5.00;;;2.90;;
56567;SDS011;42456;49.956;20.004;2024-02-26T11:25:03;5.90;;;2.60;;
56567;SDS011;42456;49.956;20.004;2024-02-26T11:28:22;5.50;;;2.40;;
56567;SDS011;42456;49.956;20.004;2024-02-26T11:30:56;6.20;;;3.10;;
56567;SDS011;42456;49.956;20.004;2024-02-26T11:33:35;4.20;;;2.50;;
56567;SDS011;42456;49.956;20.004;2024-02-26T11:36:09;3.00;;;2.40;;
56567;SDS011;42456;49.956;20.004;2024-02-26T11:38:38;2.60;;;2.20;;
56567;SDS011;42456;49.956;20.004;2024-02-26T11:41:07;4.20;;;2.70;;
56567;SDS011;42456;49.956;20.004;2024-02-26T11:46:27;3.20;;;2.20;;
56567;SDS011;42456;49.956;20.004;2024-02-26T11:49:00;4.40;;;2.70;;
56567;SDS011;42456;49.956;20.004;2024-02-26T11:51:33;6.20;;;2.60;;
56567;SDS011;42456;49.956;20.004;2024-02-26T11:54:04;3.90;;;2.40;;
56567;SDS011;42456;49.956;20.004;2024-02-26T11:56:33;4.80;;;2.30;;
56567;SDS011;42456;49.956;20.004;2024-02-26T11:59:08;5.40;;;2.80;;
56567;SDS011;42456;49.956;20.004;2024-02-26T12:07:02;5.40;;;2.60;;
56567;SDS011;42456;49.956;20.004;2024-02-26T12:10:59;4.50;;;2.60;;
56567;SDS011;42456;49.956;20.004;2024-02-26T12:14:39;2.50;;;2.20;;
56567;SDS011;42456;49.956;20.004;2024-02-26T12:21:52;2.80;;;2.30;;
56567;SDS011;42456;49.956;20.004;2024-02-26T12:24:25;3.10;;;2.40;;
56567;SDS011;42456;49.956;20.004;2024-02-26T12:28:46;2.80;;;2.20;;
56567;SDS011;42456;49.956;20.004;2024-02-26T12:32:47;4.10;;;2.10;;
56567;SDS011;42456;49.956;20.004;2024-02-26T12:40:15;4.00;;;2.40;;
56567;SDS011;42456;49.956;20.004;2024-02-26T12:44:04;3.10;;;2.00;;
56567;SDS011;42456;49.956;20.004;2024-02-26T12:51:26;3.90;;;2.30;;
56567;SDS011;42456;49.956;20.004;2024-02-26T12:57:01;3.70;;;2.80;;
56567;SDS011;42456;49.956;20.004;2024-02-26T12:59:36;3.60;;;2.70;;
56567;SDS011;42456;49.956;20.004;2024-02-26T13:04:44;4.70;;;3.10;;
56567;SDS011;42456;49.956;20.004;2024-02-26T13:08:09;3.90;;;3.00;;
56567;SDS011;42456;49.956;20.004;2024-02-26T13:15:24;3.70;;;2.90;;
56567;SDS011;42456;49.956;20.004;2024-02-26T13:19:16;3.90;;;2.70;;
56567;SDS011;42456;49.956;20.004;2024-02-26T13:23:09;5.90;;;3.40;;
56567;SDS011;42456;49.956;20.004;2024-02-26T13:27:03;5.30;;;3.70;;
56567;SDS011;42456;49.956;20.004;2024-02-26T13:31:16;5.70;;;3.80;;
56567;SDS011;42456;49.956;20.004;2024-02-26T13:34:56;6.30;;;4.30;;
56567;SDS011;42456;49.956;20.004;2024-02-26T13:38:41;6.00;;;4.10;;
56567;SDS011;42456;49.956;20.004;2024-02-26T13:41:18;5.40;;;3.70;;
56567;SDS011;42456;49.956;20.004;2024-02-26T13:43:44;6.30;;;3.90;;
56567;SDS011;42456;49.956;20.004;2024-02-26T13:46:10;7.70;;;3.70;;
56567;SDS011;42456;49.956;20.004;2024-02-26T13:48:38;5.70;;;3.90;;
56567;SDS011;42456;49.956;20.004;2024-02-26T13:51:03;4.00;;;2.70;;
56567;SDS011;42456;49.956;20.004;2024-02-26T13:53:29;5.20;;;3.50;;
56567;SDS011;42456;49.956;20.004;2024-02-26T13:55:55;5.90;;;4.00;;
56567;SDS011;42456;49.956;20.004;2024-02-26T13:58:24;5.10;;;3.30;;
56567;SDS011;42456;49.956;20.004;2024-02-26T14:00:55;8.00;;;3.90;;
56567;SDS011;42456;49.956;20.004;2024-02-26T14:03:23;5.60;;;3.60;;
56567;SDS011;42456;49.956;20.004;2024-02-26T14:05:50;7.50;;;3.90;;
56567;SDS011;42456;49.956;20.004;2024-02-26T14:08:18;5.50;;;3.60;;
56567;SDS011;42456;49.956;20.004;2024-02-26T14:10:45;4.70;;;3.20;;
56567;SDS011;42456;49.956;20.004;2024-02-26T14:13:12;4.60;;;2.60;;
56567;SDS011;42456;49.956;20.004;2024-02-26T14:15:40;5.30;;;3.50;;
56567;SDS011;42456;49.956;20.004;2024-02-26T14:18:07;5.60;;;3.80;;
56567;SDS011;42456;49.956;20.004;2024-02-26T14:20:35;5.30;;;3.70;;
56567;SDS011;42456;49.956;20.004;2024-02-26T14:23:02;4.20;;;3.10;;
56567;SDS011;42456;49.956;20.004;2024-02-26T14:25:29;5.80;;;3.80;;
56567;SDS011;42456;49.956;20.004;2024-02-26T14:27:57;7.60;;;3.90;;
56567;SDS011;42456;49.956;20.004;2024-02-26T14:30:26;5.30;;;3.60;;
56567;SDS011;42456;49.956;20.004;2024-02-26T14:32:53;5.50;;;3.60;;
56567;SDS011;42456;49.956;20.004;2024-02-26T14:35:22;6.10;;;3.60;;
56567;SDS011;42456;49.956;20.004;2024-02-26T14:37:49;7.00;;;4.30;;
56567;SDS011;42456;49.956;20.004;2024-02-26T14:40:18;8.50;;;4.70;;
56567;SDS011;42456;49.956;20.004;2024-02-26T14:42:45;6.20;;;4.20;;
56567;SDS011;42456;49.956;20.004;2024-02-26T14:45:13;9.90;;;5.50;;
56567;SDS011;42456;49.956;20.004;2024-02-26T14:47:41;13.40;;;6.10;;
56567;SDS011;42456;49.956;20.004;2024-02-26T14:50:08;10.50;;;5.30;;
56567;SDS011;42456;49.956;20.004;2024-02-26T14:52:35;11.50;;;6.60;;
56567;SDS011;42456;49.956;20.004;2024-02-26T14:55:02;10.30;;;6.00;;
56567;SDS011;42456;49.956;20.004;2024-02-26T14:57:30;14.30;;;7.00;;
56567;SDS011;42456;49.956;20.004;2024-02-26T14:59:57;12.90;;;6.60;;
56567;SDS011;42456;49.956;20.004;2024-02-26T15:02:24;13.30;;;6.80;;
56567;SDS011;42456;49.956;20.004;2024-02-26T15:04:52;10.30;;;5.90;;
56567;SDS011;42456;49.956;20.004;2024-02-26T15:07:19;9.70;;;5.80;;
56567;SDS011;42456;49.956;20.004;2024-02-26T15:09:47;10.80;;;6.30;;
56567;SDS011;42456;49.956;20.004;2024-02-26T15:12:14;9.20;;;6.10;;
56567;SDS011;42456;49.956;20.004;2024-02-26T15:14:44;10.00;;;6.00;;
56567;SDS011;42456;49.956;20.004;2024-02-26T15:17:11;10.10;;;5.60;;
56567;SDS011;42456;49.956;20.004;2024-02-26T15:19:40;9.60;;;5.80;;
56567;SDS011;42456;49.956;20.004;2024-02-26T15:22:07;10.00;;;6.00;;
56567;SDS011;42456;49.956;20.004;2024-02-26T15:24:34;10.60;;;6.60;;
56567;SDS011;42456;49.956;20.004;2024-02-26T15:27:02;10.50;;;6.30;;
56567;SDS011;42456;49.956;20.004;2024-02-26T15:29:30;10.60;;;6.30;;
56567;SDS011;42456;49.956;20.004;2024-02-26T15:32:04;9.00;;;5.90;;
56567;SDS011;42456;49.956;20.004;2024-02-26T15:34:41;10.60;;;6.40;;
56567;SDS011;42456;49.956;20.004;2024-02-26T15:37:09;13.60;;;7.60;;
56567;SDS011;42456;49.956;20.004;2024-02-26T15:39:40;16.30;;;8.40;;
56567;SDS011;42456;49.956;20.004;2024-02-26T15:42:07;16.80;;;8.90;;
56567;SDS011;42456;49.956;20.004;2024-02-26T15:44:36;16.50;;;8.30;;
56567;SDS011;42456;49.956;20.004;2024-02-26T15:47:05;14.10;;;7.70;;
56567;SDS011;42456;49.956;20.004;2024-02-26T15:49:32;14.40;;;7.20;;
56567;SDS011;42456;49.956;20.004;2024-02-26T15:52:00;18.80;;;9.10;;
56567;SDS011;42456;49.956;20.004;2024-02-26T15:54:31;17.10;;;9.20;;
56567;SDS011;42456;49.956;20.004;2024-02-26T15:56:59;16.00;;;9.00;;
56567;SDS011;42456;49.956;20.004;2024-02-26T15:59:26;19.30;;;10.70;;
56567;SDS011;42456;49.956;20.004;2024-02-26T16:01:53;18.20;;;11.10;;